Time;durP1;ratioP1;P1;durP2;ratioP2;P2;SDS_P1;SDS_P2;PMS_P1;PMS_P2;Temp;Humidity;BMP_temperature;BMP_pressure;BME280_temperature;BME280_humidity;BME280_pressure;Samples;Min_cycle;Max_cycle;Signal;HPM_P1;HPM_P2
2021/08/22 09:46:46;;;;;;;;;3.75;3.25;;;;;19.47;62.96;101863.41;5093679;27;45324;-78
2021/08/22 09:49:49;;;;;;;;;4.00;2.25;;;;;19.79;62.52;101863.47;5087699;27;45341;-79
2021/08/22 09:52:52;;;;;;;;;5.25;2.25;;;;;20.06;60.90;101861.16;5085037;27;45452;-80
2021/08/22 09:56:00;;;;;;;;;2.50;2.00;;;;;20.30;60.62;101866.09;5075563;28;45324;-79
2021/08/22 09:58:37;;;;;;;;;3.50;3.00;;;;;20.48;58.91;101866.88;5068824;27;46650;-79
2021/08/22 10:01:18;;;;;;;;;1.00;1.00;;;;;20.50;57.18;101890.78;5076082;28;46411;-80
2021/08/22 10:03:52;;;;;;;;;1.00;1.00;;;;;20.48;56.87;101892.69;5069727;28;45457;-78
2021/08/22 10:06:35;;;;;;;;;4.00;3.00;;;;;20.44;58.65;101889.34;5076132;27;47265;-78
2021/08/22 10:09:09;;;;;;;;;1.50;1.50;;;;;20.44;57.69;101870.66;5078354;27;47418;-80
2021/08/22 10:11:39;;;;;;;;;1.75;1.75;;;;;20.53;59.12;101870.13;5089403;27;46421;-79
2021/08/22 10:14:09;;;;;;;;;1.00;1.00;;;;;20.65;58.80;101875.69;5075852;28;45334;-80
2021/08/22 10:16:37;;;;;;;;;1.75;1.75;;;;;20.67;58.42;101880.00;5074812;27;46313;-79
2021/08/22 10:19:04;;;;;;;;;1.00;1.00;;;;;20.77;58.38;101874.13;5075888;28;45399;-79
2021/08/22 10:21:29;;;;;;;;;2.00;2.00;;;;;20.89;58.13;101883.25;5074941;28;45457;-79
2021/08/22 10:24:16;;;;;;;;;0.00;0.00;;;;;20.94;57.26;101877.63;5076298;28;45275;-79
2021/08/22 10:26:48;;;;;;;;;0.25;0.25;;;;;21.00;57.55;101886.16;5074464;27;45579;-79
2021/08/22 10:29:24;;;;;;;;;0.25;0.25;;;;;21.00;57.64;101874.59;5075934;28;45251;-79
2021/08/22 10:31:50;;;;;;;;;0.00;0.00;;;;;21.07;57.25;101877.78;5076009;28;45333;-79
2021/08/22 10:34:22;;;;;;;;;1.75;1.00;;;;;21.02;57.28;101870.91;5075853;28;45472;-77
2021/08/22 10:36:48;;;;;;;;;2.00;1.00;;;;;21.05;58.53;101867.19;5084584;27;45269;-76
2021/08/22 10:39:21;;;;;;;;;1.75;1.00;;;;;21.10;59.04;101870.44;5075232;28;46452;-76
2021/08/22 10:41:46;;;;;;;;;1.00;1.00;;;;;21.11;56.56;101869.47;5075974;27;45509;-76
2021/08/22 10:44:34;;;;;;;;;1.00;1.00;;;;;21.18;58.01;101880.69;5078215;27;45207;-76
2021/08/22 10:47:00;;;;;;;;;0.25;0.25;;;;;21.18;57.37;101874.47;5096003;27;45286;-73
2021/08/22 10:49:52;;;;;;;;;1.25;1.25;;;;;21.20;55.24;101872.56;5096062;27;45452;-77
2021/08/22 10:52:22;;;;;;;;;2.25;2.00;;;;;21.18;57.12;101869.97;5092214;27;45456;-77
2021/08/22 10:55:17;;;;;;;;;1.00;1.00;;;;;21.27;56.60;101876.56;5095875;27;45439;-76
2021/08/22 10:57:42;;;;;;;;;1.50;1.50;;;;;21.31;56.11;101875.41;5063450;27;45646;-77
2021/08/22 11:00:27;;;;;;;;;1.50;0.75;;;;;21.35;55.93;101871.63;5082273;28;45503;-76
2021/08/22 11:02:57;;;;;;;;;4.75;3.25;;;;;21.42;56.45;101872.09;5082237;28;45305;-76
2021/08/22 11:05:27;;;;;;;;;2.75;2.75;;;;;21.45;56.77;101855.00;5082890;27;45256;-79
2021/08/22 11:07:55;;;;;;;;;2.00;2.00;;;;;21.54;56.34;101857.09;5100876;27;45532;-79
2021/08/22 11:10:28;;;;;;;;;1.00;1.00;;;;;21.61;56.07;101875.47;5088506;27;46043;-79
2021/08/22 11:12:54;;;;;;;;;2.75;1.75;;;;;21.64;56.22;101869.91;5064195;28;45573;-80
2021/08/22 11:15:27;;;;;;;;;1.00;1.00;;;;;21.73;56.38;101860.44;5063820;28;45293;-79
2021/08/22 11:18:04;;;;;;;;;1.00;1.00;;;;;21.81;55.89;101867.03;5082304;27;45325;-80
2021/08/22 11:20:32;;;;;;;;;3.00;1.00;;;;;21.84;55.81;101862.44;5081991;28;46369;-80
2021/08/22 11:23:06;;;;;;;;;1.00;1.00;;;;;21.85;54.44;101856.13;5081868;28;45160;-81
2021/08/22 11:25:32;;;;;;;;;1.00;1.00;;;;;21.79;55.23;101857.38;5083529;27;45430;-80
2021/08/22 11:28:18;;;;;;;;;1.75;1.75;;;;;21.80;55.62;101851.09;5081138;27;45453;-80
2021/08/22 11:30:44;;;;;;;;;2.25;2.00;;;;;21.80;55.22;101851.91;5078179;28;45436;-78
2021/08/22 11:33:11;;;;;;;;;2.25;1.50;;;;;21.79;55.36;101858.25;5081667;28;45444;-74
2021/08/22 11:35:38;;;;;;;;;2.00;0.00;;;;;21.80;54.21;101859.09;5063861;28;45346;-74
2021/08/22 11:38:05;;;;;;;;;1.00;1.00;;;;;21.80;55.71;101873.31;5081025;27;45769;-75
2021/08/22 11:40:32;;;;;;;;;1.00;1.00;;;;;21.89;55.74;101865.72;5081593;28;45465;-74
2021/08/22 11:43:03;;;;;;;;;1.50;1.50;;;;;21.91;52.44;101861.97;5081696;28;45271;-75
2021/08/22 11:45:31;;;;;;;;;0.50;0.50;;;;;21.96;53.21;101867.03;5070643;28;45377;-75
2021/08/22 11:47:57;;;;;;;;;1.50;1.00;;;;;21.96;53.45;101861.69;5083317;27;45193;-75
2021/08/22 11:50:28;;;;;;;;;1.00;1.00;;;;;21.95;54.27;101862.66;5088657;27;45820;-75
2021/08/22 11:52:55;;;;;;;;;1.25;1.25;;;;;21.94;54.77;101860.94;5081532;28;45422;-75
2021/08/22 11:55:22;;;;;;;;;2.25;2.00;;;;;21.93;54.35;101867.22;5081618;28;45259;-75
2021/08/22 11:57:48;;;;;;;;;2.75;2.75;;;;;21.89;54.77;101863.91;5080552;28;45504;-75
2021/08/22 12:00:17;;;;;;;;;1.75;1.75;;;;;21.90;54.89;101862.09;5081035;28;46419;-75
2021/08/22 12:03:03;;;;;;;;;3.25;2.00;;;;;21.90;54.97;101867.44;5065226;28;45298;-75
2021/08/22 12:05:33;;;;;;;;;5.25;4.00;;;;;21.88;54.37;101866.66;5061555;28;45333;-75
2021/08/22 12:08:04;;;;;;;;;5.75;2.75;;;;;21.90;55.16;101865.59;5078862;28;45225;-75
2021/08/22 12:10:31;;;;;;;;;2.00;2.00;;;;;21.90;54.96;101872.78;5079745;28;46498;-75
2021/08/22 12:12:59;;;;;;;;;1.75;1.00;;;;;21.89;55.59;101863.91;5073297;28;45868;-75
2021/08/22 12:15:33;;;;;;;;;2.25;2.25;;;;;21.91;55.49;101863.78;5079625;28;45390;-75
2021/08/22 12:18:21;;;;;;;;;2.00;1.00;;;;;21.99;55.07;101866.84;5072881;28;45216;-76
2021/08/22 12:20:50;;;;;;;;;1.00;1.00;;;;;22.04;54.25;101866.56;5058183;28;47195;-76
2021/08/22 12:23:16;;;;;;;;;3.00;1.50;;;;;22.05;54.58;101865.56;5079421;28;45302;-77
2021/08/22 12:25:42;;;;;;;;;2.00;2.00;;;;;22.10;54.82;101873.34;5061518;28;45394;-77
2021/08/22 12:28:21;;;;;;;;;1.00;1.00;;;;;22.06;54.99;101872.66;5079539;28;46719;-77
2021/08/22 12:30:49;;;;;;;;;1.00;1.00;;;;;22.07;53.23;101874.38;5062541;28;48936;-77
2021/08/22 12:33:37;;;;;;;;;2.25;2.25;;;;;22.12;52.52;101874.09;5079181;28;45574;-77
2021/08/22 12:36:17;;;;;;;;;2.00;2.00;;;;;22.12;50.53;101868.72;5075367;28;45421;-77
2021/08/22 12:38:57;;;;;;;;;1.00;1.00;;;;;22.12;51.29;101874.97;5076852;28;45391;-77
2021/08/22 12:41:37;;;;;;;;;1.75;1.75;;;;;22.11;50.62;101877.72;5060929;28;47975;-77
2021/08/22 12:44:04;;;;;;;;;1.50;1.00;;;;;22.05;51.21;101872.78;5077365;28;45673;-78
2021/08/22 12:46:32;;;;;;;;;0.75;0.75;;;;;22.07;51.71;101886.91;5078091;28;45430;-78
2021/08/22 12:48:58;;;;;;;;;2.25;1.75;;;;;21.99;51.59;101896.28;5078246;28;45574;-78
2021/08/22 12:51:24;;;;;;;;;2.75;1.75;;;;;21.92;51.59;101889.59;5077000;28;45329;-78
2021/08/22 12:53:53;;;;;;;;;0.75;0.75;;;;;21.80;52.25;101892.06;5062221;28;45641;-78
2021/08/22 12:56:21;;;;;;;;;1.00;1.00;;;;;21.77;52.81;101892.25;5091290;27;46983;-77
2021/08/22 12:58:46;;;;;;;;;3.00;2.00;;;;;21.76;52.42;101895.88;5081266;27;45457;-77
2021/08/22 13:01:11;;;;;;;;;3.00;1.00;;;;;21.72;52.55;101901.53;5085133;27;45446;-78
2021/08/22 13:03:37;;;;;;;;;2.50;2.50;;;;;21.67;53.49;101891.97;5080312;28;45226;-77
2021/08/22 13:06:03;;;;;;;;;3.00;3.00;;;;;21.72;52.78;101891.69;5092140;27;45737;-77
2021/08/22 13:08:29;;;;;;;;;8.00;7.00;;;;;21.74;54.05;101887.09;5080396;28;45453;-77
2021/08/22 13:10:54;;;;;;;;;9.75;7.00;;;;;21.80;53.09;101880.50;5079768;28;46471;-79
2021/08/22 13:13:19;;;;;;;;;3.50;2.75;;;;;21.85;53.23;101877.53;5079678;28;45382;-78
2021/08/22 13:15:45;;;;;;;;;6.00;6.00;;;;;21.93;53.39;101869.91;5080315;28;45262;-77
2021/08/22 13:18:10;;;;;;;;;2.00;2.00;;;;;21.92;52.58;101873.56;5079868;28;45509;-78
2021/08/22 13:20:36;;;;;;;;;3.75;3.50;;;;;21.94;53.33;101865.41;5079397;28;45532;-77
2021/08/22 13:23:01;;;;;;;;;7.25;7.25;;;;;21.96;53.76;101867.03;5092199;27;45441;-78
2021/08/22 13:25:28;;;;;;;;;3.25;3.00;;;;;22.00;52.85;101870.38;5076774;27;45405;-77
2021/08/22 13:27:54;;;;;;;;;1.75;0.75;;;;;22.02;50.54;101861.31;5090258;27;45382;-76
2021/08/22 13:30:19;;;;;;;;;1.00;1.00;;;;;22.06;50.41;101867.31;5079302;28;46342;-76
2021/08/22 13:32:44;;;;;;;;;1.25;1.00;;;;;22.09;51.55;101863.56;5061396;28;46210;-76
2021/08/22 13:35:10;;;;;;;;;0.00;0.00;;;;;22.17;50.09;101866.63;5080275;28;45508;-76
2021/08/22 13:37:35;;;;;;;;;3.00;1.00;;;;;22.22;49.87;101879.72;5079796;28;45173;-76
2021/08/22 13:40:00;;;;;;;;;1.00;1.00;;;;;22.28;49.41;101862.38;5075740;27;46575;-77
2021/08/22 13:42:26;;;;;;;;;5.00;1.75;;;;;22.33;50.16;101860.25;5080349;28;45199;-77
2021/08/22 13:44:51;;;;;;;;;1.00;1.00;;;;;22.44;48.95;101863.09;5079605;28;45467;-77
2021/08/22 13:47:17;;;;;;;;;1.00;1.00;;;;;22.51;49.53;101866.22;5079156;28;45235;-77
2021/08/22 13:49:42;;;;;;;;;2.00;1.00;;;;;22.59;49.54;101860.34;5079500;28;46469;-77
2021/08/22 13:52:07;;;;;;;;;1.50;1.00;;;;;22.64;49.06;101876.13;5080066;27;45312;-77
2021/08/22 13:54:33;;;;;;;;;3.00;2.00;;;;;22.66;48.46;101877.72;5081446;27;45309;-77
2021/08/22 13:56:58;;;;;;;;;1.00;1.00;;;;;22.70;49.63;101867.69;5090232;27;45428;-77
2021/08/22 13:59:24;;;;;;;;;1.75;1.00;;;;;22.76;48.84;101869.97;5061029;28;47903;-77
2021/08/22 14:01:49;;;;;;;;;1.00;1.00;;;;;22.85;49.84;101871.16;5078574;28;45440;-77
2021/08/22 14:04:15;;;;;;;;;1.00;1.00;;;;;22.89;49.00;101878.00;5068474;28;45414;-77
2021/08/22 14:06:40;;;;;;;;;2.00;1.50;;;;;22.92;48.62;101875.13;5075424;27;45388;-77
2021/08/22 14:09:05;;;;;;;;;2.00;1.50;;;;;22.92;48.32;101875.13;5073416;27;46938;-77
2021/08/22 14:11:31;;;;;;;;;0.25;0.25;;;;;23.00;47.44;101889.84;5060800;28;45326;-76
2021/08/22 14:13:56;;;;;;;;;1.25;1.25;;;;;23.00;47.59;101877.28;5072558;27;45330;-76
2021/08/22 14:16:22;;;;;;;;;1.00;1.00;;;;;22.98;46.97;101884.59;5078831;28;45472;-76
2021/08/22 14:18:48;;;;;;;;;0.75;0.75;;;;;23.01;46.80;101888.88;5078134;28;45465;-76
2021/08/22 14:21:13;;;;;;;;;2.25;1.00;;;;;22.98;47.25;101889.09;5075319;27;45418;-76
2021/08/22 14:23:39;;;;;;;;;2.00;2.00;;;;;22.91;47.60;101884.16;5081006;27;45462;-76
2021/08/22 14:26:04;;;;;;;;;1.50;0.25;;;;;22.89;47.57;101883.38;5073967;27;46098;-76
2021/08/22 14:28:31;;;;;;;;;1.25;1.00;;;;;22.85;48.50;101884.56;5080905;27;45263;-76
2021/08/22 14:30:56;;;;;;;;;1.50;1.50;;;;;22.85;47.51;101889.91;5079702;28;45232;-76
2021/08/22 14:33:22;;;;;;;;;2.00;0.50;;;;;22.84;48.31;101890.84;5083013;27;45523;-76
2021/08/22 14:35:47;;;;;;;;;1.00;1.00;;;;;22.89;48.14;101898.63;5064468;28;46764;-76
2021/08/22 14:38:13;;;;;;;;;1.25;0.50;;;;;22.87;48.45;101893.34;5082508;28;45411;-76
2021/08/22 14:40:38;;;;;;;;;1.25;1.00;;;;;22.92;49.05;101888.53;5069654;28;45653;-76
2021/08/22 14:43:04;;;;;;;;;1.00;1.00;;;;;22.93;48.53;101887.59;5083037;28;45185;-76
2021/08/22 14:45:30;;;;;;;;;2.50;2.00;;;;;22.99;48.35;101902.38;5081847;27;45569;-76
2021/08/22 14:47:56;;;;;;;;;2.25;1.00;;;;;22.96;48.54;101894.56;5082851;28;45369;-76
2021/08/22 14:50:22;;;;;;;;;1.50;1.25;;;;;23.01;48.27;101888.88;5082592;28;45271;-76
2021/08/22 14:52:48;;;;;;;;;0.75;0.75;;;;;23.03;48.23;101901.22;5082728;28;45342;-76
2021/08/22 14:55:14;;;;;;;;;1.75;1.75;;;;;23.00;48.28;101896.06;5081818;28;45547;-76
2021/08/22 14:57:39;;;;;;;;;1.00;1.00;;;;;23.00;48.39;101900.56;5082459;27;46351;-76
2021/08/22 15:00:05;;;;;;;;;2.00;1.00;;;;;23.00;48.83;101898.75;5082360;28;45228;-76
2021/08/22 15:02:31;;;;;;;;;3.00;1.00;;;;;23.02;48.01;101903.97;5082118;28;45330;-76
2021/08/22 15:04:58;;;;;;;;;4.75;2.75;;;;;22.96;48.40;101905.28;5082032;28;45385;-76
2021/08/22 15:07:23;;;;;;;;;2.00;2.00;;;;;22.98;48.58;101907.84;5082299;28;46236;-76
2021/08/22 15:09:49;;;;;;;;;1.25;1.25;;;;;22.94;49.04;101907.19;5076481;28;45256;-76
2021/08/22 15:12:15;;;;;;;;;1.00;1.00;;;;;22.90;48.65;101909.22;5073528;28;45323;-76
2021/08/22 15:14:44;;;;;;;;;7.00;2.00;;;;;22.85;48.28;101908.66;5081553;28;45694;-76
2021/08/22 15:17:11;;;;;;;;;1.50;1.25;;;;;22.77;48.46;101906.50;5082161;28;45310;-77
2021/08/22 15:19:37;;;;;;;;;1.00;1.00;;;;;22.79;48.92;101906.41;5081640;28;46075;-76
2021/08/22 15:22:03;;;;;;;;;4.00;3.00;;;;;22.82;49.14;101909.72;5082196;28;45306;-76
2021/08/22 15:24:36;;;;;;;;;1.25;1.00;;;;;22.85;48.79;101906.00;5082111;27;45497;-76
2021/08/22 15:27:03;;;;;;;;;2.00;2.00;;;;;22.88;48.89;101907.59;5082121;28;46327;-76
2021/08/22 15:29:30;;;;;;;;;2.75;2.00;;;;;22.92;47.96;101912.66;5081748;28;45494;-76
2021/08/22 15:31:56;;;;;;;;;3.25;1.00;;;;;22.95;49.10;101908.91;5081817;28;45268;-76
2021/08/22 15:34:22;;;;;;;;;1.00;1.00;;;;;23.00;48.66;101913.97;5081173;27;45815;-76
2021/08/22 15:36:47;;;;;;;;;0.75;0.75;;;;;22.99;47.93;101912.25;5081767;28;46273;-76
2021/08/22 15:39:13;;;;;;;;;0.50;0.50;;;;;23.00;48.27;101916.63;5081228;27;45468;-76
2021/08/22 15:41:38;;;;;;;;;1.00;1.00;;;;;22.97;48.24;101923.06;5080030;28;45372;-76
2021/08/22 15:44:06;;;;;;;;;1.00;1.00;;;;;22.95;48.13;101925.00;5081063;28;45426;-76
2021/08/22 15:46:31;;;;;;;;;1.00;1.00;;;;;22.89;48.51;101920.91;5081807;28;45409;-76
2021/08/22 15:48:58;;;;;;;;;1.00;1.00;;;;;22.87;47.91;101912.09;5081625;28;45235;-76
2021/08/22 15:51:24;;;;;;;;;2.00;2.00;;;;;22.87;47.72;101906.75;5081921;27;45290;-76
2021/08/22 15:53:50;;;;;;;;;0.50;0.50;;;;;22.84;48.52;101919.50;5081313;27;45486;-77
2021/08/22 15:56:15;;;;;;;;;1.75;1.75;;;;;22.83;48.27;101913.28;5081609;28;45682;-76
2021/08/22 15:58:41;;;;;;;;;1.25;1.25;;;;;22.81;47.54;101915.22;5079452;28;45503;-76
2021/08/22 16:01:06;;;;;;;;;2.00;1.00;;;;;22.77;47.43;101911.00;5062628;28;45328;-76
2021/08/22 16:03:32;;;;;;;;;1.00;1.00;;;;;22.76;48.43;101910.16;5081394;27;45500;-76
2021/08/22 16:05:57;;;;;;;;;0.50;0.50;;;;;22.76;48.21;101898.56;5063117;28;47268;-76
2021/08/22 16:08:23;;;;;;;;;2.00;2.00;;;;;22.85;48.61;101919.41;5081295;28;45406;-76
2021/08/22 16:10:50;;;;;;;;;3.00;3.00;;;;;22.87;48.34;101912.09;5081515;27;45857;-76
2021/08/22 16:13:15;;;;;;;;;2.50;1.00;;;;;22.91;47.87;101908.28;5081333;28;45275;-76
2021/08/22 16:15:41;;;;;;;;;1.25;1.25;;;;;22.90;47.97;101909.22;5080564;28;45289;-76
2021/08/22 16:18:06;;;;;;;;;2.00;2.00;;;;;22.91;47.54;101907.41;5080568;28;46791;-76
2021/08/22 16:20:32;;;;;;;;;2.00;2.00;;;;;22.93;49.28;101906.34;5081072;27;45539;-76
2021/08/22 16:22:57;;;;;;;;;1.00;1.00;;;;;22.97;48.30;101912.34;5062863;28;47129;-77
2021/08/22 16:25:22;;;;;;;;;2.00;1.00;;;;;22.95;48.82;101908.03;5080775;28;46642;-77
2021/08/22 16:27:48;;;;;;;;;3.25;1.50;;;;;22.94;48.69;101907.19;5081221;28;45155;-78
2021/08/22 16:30:17;;;;;;;;;2.00;2.00;;;;;22.95;48.19;101910.72;5062546;28;45462;-78
2021/08/22 16:32:43;;;;;;;;;1.25;1.25;;;;;22.94;48.30;101907.19;5093106;27;45706;-78
2021/08/22 16:35:09;;;;;;;;;3.00;2.00;;;;;22.98;48.73;101908.72;5080938;28;45422;-78
2021/08/22 16:37:34;;;;;;;;;1.00;1.00;;;;;22.94;48.81;101901.81;5079933;28;46919;-78
2021/08/22 16:40:00;;;;;;;;;2.25;2.25;;;;;22.99;48.68;101910.41;5080182;28;45430;-78
2021/08/22 16:42:25;;;;;;;;;1.50;0.25;;;;;23.00;48.26;101914.81;5080030;27;45457;-78
2021/08/22 16:44:50;;;;;;;;;1.25;1.25;;;;;23.07;48.22;101911.72;5080234;28;46406;-78
2021/08/22 16:47:16;;;;;;;;;2.00;2.00;;;;;23.13;47.89;101919.34;5080825;28;45181;-78
2021/08/22 16:49:41;;;;;;;;;1.00;1.00;;;;;23.13;48.11;101916.66;5086697;27;45156;-78
2021/08/22 16:52:06;;;;;;;;;3.25;2.75;;;;;23.13;48.39;101905.94;5086326;27;45442;-78
2021/08/22 16:54:32;;;;;;;;;1.50;1.00;;;;;23.18;48.46;101913.66;5080052;28;45284;-78
2021/08/22 16:56:57;;;;;;;;;2.00;2.00;;;;;23.19;48.26;101910.88;5080711;27;45410;-78
2021/08/22 16:59:22;;;;;;;;;2.00;1.75;;;;;23.17;48.74;101912.81;5081219;27;45505;-78
2021/08/22 17:01:49;;;;;;;;;1.25;1.25;;;;;23.15;47.66;101912.91;5091528;27;45412;-78
2021/08/22 17:04:14;;;;;;;;;2.00;2.00;;;;;23.14;48.18;101921.91;5080356;27;46391;-78
2021/08/22 17:06:40;;;;;;;;;2.50;2.25;;;;;23.11;48.39;101914.06;5088295;27;45508;-78
2021/08/22 17:09:07;;;;;;;;;2.50;2.50;;;;;23.02;48.05;101920.94;5080419;28;45330;-78
2021/08/22 17:11:33;;;;;;;;;2.00;2.00;;;;;22.96;48.31;101923.19;5080338;28;45523;-77
2021/08/22 17:13:58;;;;;;;;;3.75;3.75;;;;;22.87;48.39;101924.63;5079641;28;45342;-77
2021/08/22 17:16:24;;;;;;;;;2.00;2.00;;;;;22.84;49.43;101923.03;5081338;27;45467;-77
2021/08/22 17:18:49;;;;;;;;;3.00;3.00;;;;;22.78;48.75;101921.63;5086993;27;45241;-77
2021/08/22 17:21:14;;;;;;;;;5.00;5.00;;;;;22.74;49.12;101924.63;5090872;27;45399;-77
2021/08/22 17:23:40;;;;;;;;;5.00;4.25;;;;;22.67;49.43;101916.06;5083920;27;45431;-77
2021/08/22 17:26:05;;;;;;;;;3.00;2.00;;;;;22.69;49.12;101933.81;5079967;28;45243;-77
2021/08/22 17:28:31;;;;;;;;;3.75;3.75;;;;;22.67;49.19;101927.66;5079970;27;45410;-77
2021/08/22 17:30:56;;;;;;;;;4.50;3.00;;;;;22.63;49.50;101926.16;5082416;27;45435;-77
2021/08/22 17:33:22;;;;;;;;;6.75;4.00;;;;;22.65;49.08;101928.72;5071758;28;45196;-78
2021/08/22 17:35:47;;;;;;;;;4.75;4.00;;;;;22.67;49.77;101938.38;5091903;27;45202;-78
2021/08/22 17:38:13;;;;;;;;;5.00;5.00;;;;;22.68;49.33;101940.09;5079910;28;45691;-78
2021/08/22 17:40:38;;;;;;;;;5.00;5.00;;;;;22.65;49.10;101929.59;5079603;28;45475;-78
2021/08/22 17:43:04;;;;;;;;;3.25;3.25;;;;;22.62;49.28;101929.78;5079702;27;45209;-78
2021/08/22 17:45:29;;;;;;;;;8.25;5.00;;;;;22.62;48.89;101940.50;5079615;28;45323;-78
2021/08/22 17:47:55;;;;;;;;;6.50;5.00;;;;;22.60;48.94;101948.66;5080143;28;45470;-78
2021/08/22 17:50:20;;;;;;;;;4.25;4.25;;;;;22.59;49.31;101948.75;5079331;28;45375;-78
2021/08/22 17:52:46;;;;;;;;;6.25;5.25;;;;;22.58;49.42;101947.03;5079086;28;46469;-78
2021/08/22 17:55:11;;;;;;;;;5.50;4.00;;;;;22.55;49.46;101950.75;5090199;27;45268;-78
2021/08/22 17:57:37;;;;;;;;;5.75;5.75;;;;;22.55;48.94;101955.25;5081458;27;45841;-78
2021/08/22 18:00:03;;;;;;;;;5.75;5.75;;;;;22.58;49.30;101960.41;5095536;27;45485;-78
2021/08/22 18:02:29;;;;;;;;;7.00;5.75;;;;;22.53;49.03;101959.84;5079084;27;47345;-77
2021/08/22 18:04:54;;;;;;;;;4.25;4.25;;;;;22.51;49.73;101956.44;5079255;28;45351;-77
2021/08/22 18:07:19;;;;;;;;;4.50;4.25;;;;;22.52;49.36;101967.03;5063905;28;45425;-77
2021/08/22 18:09:45;;;;;;;;;6.25;5.75;;;;;22.51;49.77;101967.13;5083457;28;45258;-77
2021/08/22 18:12:12;;;;;;;;;7.00;5.00;;;;;22.46;49.39;101957.59;5083129;28;46700;-77
2021/08/22 18:14:41;;;;;;;;;7.00;5.00;;;;;22.44;49.49;101954.16;5073728;28;45157;-77
2021/08/22 18:17:08;;;;;;;;;6.50;5.00;;;;;22.42;49.17;101964.09;5079452;28;45433;-77
2021/08/22 18:19:34;;;;;;;;;5.50;5.25;;;;;22.42;49.25;101960.56;5083092;28;45322;-77
2021/08/22 18:22:01;;;;;;;;;5.75;5.00;;;;;22.42;49.55;101971.28;5084603;27;46441;-77
2021/08/22 18:24:27;;;;;;;;;5.00;4.00;;;;;22.39;48.92;101968.78;5082864;28;45426;-78
2021/08/22 18:26:52;;;;;;;;;3.75;3.75;;;;;22.36;48.89;101983.25;5083326;28;45645;-78
2021/08/22 18:29:18;;;;;;;;;5.00;5.00;;;;;22.32;49.06;101984.41;5082396;28;45259;-77
2021/08/22 18:31:45;;;;;;;;;4.50;4.50;;;;;22.32;49.72;101987.91;5081975;28;45605;-77
2021/08/22 18:34:10;;;;;;;;;5.75;5.75;;;;;22.25;49.15;101990.13;5091653;27;45444;-77
2021/08/22 18:36:36;;;;;;;;;7.25;4.25;;;;;22.22;48.80;101992.16;5085819;27;45342;-77
2021/08/22 18:39:04;;;;;;;;;5.25;4.50;;;;;22.20;49.50;101992.25;5078603;28;45365;-77
2021/08/22 18:41:29;;;;;;;;;5.75;4.75;;;;;22.09;49.42;101994.75;5078432;28;45683;-78
2021/08/22 18:43:54;;;;;;;;;6.75;4.50;;;;;22.07;49.73;102005.56;5094092;27;45322;-78
2021/08/22 18:46:20;;;;;;;;;4.00;3.00;;;;;22.05;49.50;102007.44;5082049;27;45377;-78
2021/08/22 18:48:45;;;;;;;;;3.50;3.50;;;;;21.98;49.69;102006.97;5081877;28;45510;-78
2021/08/22 18:51:10;;;;;;;;;4.00;4.00;;;;;21.95;49.83;102009.00;5082157;28;46436;-77
2021/08/22 18:53:36;;;;;;;;;5.25;5.25;;;;;21.96;49.94;102019.59;5074413;28;45295;-78
2021/08/22 18:56:01;;;;;;;;;5.50;4.75;;;;;21.87;50.00;102012.13;5074895;28;45228;-78
2021/08/22 18:58:27;;;;;;;;;5.25;4.50;;;;;21.84;49.83;102009.59;5082040;28;45564;-78
2021/08/22 19:00:52;;;;;;;;;2.50;2.50;;;;;21.84;50.25;102018.50;5082142;28;45270;-78
2021/08/22 19:03:18;;;;;;;;;4.75;4.75;;;;;21.79;50.80;102024.13;5081894;27;45245;-78
2021/08/22 19:05:43;;;;;;;;;5.75;4.00;;;;;21.75;50.16;102019.94;5082618;28;45287;-78
2021/08/22 19:08:13;;;;;;;;;4.00;4.00;;;;;21.75;50.39;102032.44;5081651;28;45247;-78
2021/08/22 19:10:39;;;;;;;;;5.00;5.00;;;;;21.69;50.88;102022.97;5082166;28;46332;-78
2021/08/22 19:13:08;;;;;;;;;5.00;4.00;;;;;21.68;51.04;102031.97;5085324;27;45704;-78
2021/08/22 19:15:34;;;;;;;;;6.00;6.00;;;;;21.68;50.60;102038.16;5089830;27;45232;-78
2021/08/22 19:17:59;;;;;;;;;4.25;2.50;;;;;21.62;50.85;102040.34;5086209;27;45528;-78
2021/08/22 19:20:24;;;;;;;;;3.50;3.25;;;;;21.59;50.78;102052.94;5081901;28;45427;-78
2021/08/22 19:22:50;;;;;;;;;5.50;5.50;;;;;21.57;51.30;102056.66;5068671;27;45497;-78
2021/08/22 19:25:15;;;;;;;;;5.00;4.25;;;;;21.50;51.57;102050.81;5081808;28;45483;-78
2021/08/22 19:27:40;;;;;;;;;5.50;4.00;;;;;21.48;51.54;102055.41;5081920;28;45505;-77
2021/08/22 19:30:06;;;;;;;;;4.50;4.50;;;;;21.40;51.27;102061.19;5081778;28;45571;-77
2021/08/22 19:32:32;;;;;;;;;4.75;4.00;;;;;21.39;51.64;102066.63;5082598;27;45283;-77
2021/08/22 19:34:57;;;;;;;;;6.00;5.00;;;;;21.38;51.75;102072.94;5092916;27;45282;-78
2021/08/22 19:37:22;;;;;;;;;6.00;6.00;;;;;21.36;52.03;102067.66;5081804;28;45378;-78
2021/08/22 19:39:48;;;;;;;;;5.25;5.25;;;;;21.37;51.98;102077.41;5081233;28;46264;-78
2021/08/22 19:42:14;;;;;;;;;7.00;7.00;;;;;21.38;51.90;102086.31;5081470;28;45261;-77
2021/08/22 19:44:39;;;;;;;;;6.00;5.25;;;;;21.32;51.89;102083.03;5081793;27;45308;-78
2021/08/22 19:47:05;;;;;;;;;7.50;7.25;;;;;21.30;52.01;102097.44;5090276;27;45209;-77
2021/08/22 19:49:31;;;;;;;;;5.25;5.00;;;;;21.27;52.56;102093.13;5085636;27;46189;-77
2021/08/22 19:51:57;;;;;;;;;6.25;6.00;;;;;21.21;52.39;102107.69;5080611;28;45277;-77
2021/08/22 19:54:22;;;;;;;;;6.00;6.00;;;;;21.18;52.93;102115.06;5080835;28;45698;-78
2021/08/22 19:56:47;;;;;;;;;5.75;5.75;;;;;21.17;53.05;102114.19;5067347;28;45514;-76
2021/08/22 19:59:13;;;;;;;;;6.00;6.00;;;;;21.18;52.79;102117.72;5081082;28;46200;-77
2021/08/22 20:01:38;;;;;;;;;7.00;6.50;;;;;21.11;53.14;102115.38;5062512;28;45324;-77
2021/08/22 20:04:03;;;;;;;;;6.00;6.00;;;;;21.06;53.58;102122.81;5063313;27;45469;-78
2021/08/22 20:06:29;;;;;;;;;7.50;6.25;;;;;20.99;53.64;102130.25;5082218;27;45603;-77
2021/08/22 20:08:54;;;;;;;;;5.50;5.50;;;;;20.91;54.16;102140.53;5080914;28;45606;-77
2021/08/22 20:11:20;;;;;;;;;4.00;4.00;;;;;20.79;54.53;102128.72;5080916;28;45450;-77
2021/08/22 20:13:46;;;;;;;;;5.00;5.00;;;;;20.76;54.23;102137.75;5080975;27;45334;-77
2021/08/22 20:16:11;;;;;;;;;6.00;4.00;;;;;20.72;54.98;102144.19;5081234;28;45326;-77
2021/08/22 20:18:37;;;;;;;;;5.00;5.00;;;;;20.67;55.16;102136.44;5083508;27;46172;-77
2021/08/22 20:21:04;;;;;;;;;4.25;4.25;;;;;20.64;55.09;102141.94;5080770;28;45326;-77
2021/08/22 20:23:29;;;;;;;;;5.75;5.50;;;;;20.58;55.44;102145.81;5080060;28;45354;-77
2021/08/22 20:25:55;;;;;;;;;5.00;5.00;;;;;20.53;55.50;102142.53;5080232;28;45401;-77
2021/08/22 20:28:20;;;;;;;;;3.00;3.00;;;;;20.53;55.75;102141.66;5076754;28;45445;-80
2021/08/22 20:30:45;;;;;;;;;6.50;5.50;;;;;20.51;55.66;102138.22;5077979;28;45536;-80
2021/08/22 20:33:12;;;;;;;;;6.00;6.00;;;;;20.44;56.46;102138.56;5079456;28;45532;-78
2021/08/22 20:35:38;;;;;;;;;6.00;6.00;;;;;20.42;56.48;102139.56;5077287;28;46539;-80
2021/08/22 20:38:03;;;;;;;;;4.25;4.00;;;;;20.34;56.57;102145.31;5077916;28;45464;-79
2021/08/22 20:40:30;;;;;;;;;5.75;5.75;;;;;20.31;56.88;102138.31;5079483;28;45297;-79
2021/08/22 20:42:56;;;;;;;;;5.25;3.00;;;;;20.31;57.32;102143.66;5078570;28;45382;-79
2021/08/22 20:45:22;;;;;;;;;5.25;5.25;;;;;20.29;56.71;102139.34;5078859;28;45416;-79
2021/08/22 20:47:47;;;;;;;;;5.75;5.75;;;;;20.27;56.90;102138.56;5079370;28;45353;-78
2021/08/22 20:50:12;;;;;;;;;5.50;4.50;;;;;20.24;57.44;102137.78;5079276;28;45382;-78
2021/08/22 20:52:38;;;;;;;;;4.00;4.00;;;;;20.19;57.98;102131.81;5061210;28;45412;-80
2021/08/22 20:55:06;;;;;;;;;6.50;6.50;;;;;20.17;57.52;102128.38;5061277;28;46190;-77
2021/08/22 20:57:34;;;;;;;;;5.25;5.25;;;;;20.17;57.45;102136.38;5063916;28;46438;-82
2021/08/22 21:00:00;;;;;;;;;4.00;4.00;;;;;20.17;57.88;102132.84;5070575;28;45683;-78
2021/08/22 21:02:26;;;;;;;;;8.00;8.00;;;;;20.11;58.06;102134.88;5079194;28;45432;-78
2021/08/22 21:04:52;;;;;;;;;6.25;6.00;;;;;20.09;58.25;102134.06;5060916;28;46859;-77
2021/08/22 21:07:19;;;;;;;;;4.25;4.00;;;;;20.07;58.61;102140.44;5079019;28;45456;-78
2021/08/22 21:09:44;;;;;;;;;9.75;8.00;;;;;20.01;58.62;102138.94;5079083;28;45642;-78
2021/08/22 21:12:10;;;;;;;;;7.75;6.25;;;;;19.97;59.08;102137.38;5079422;28;45445;-78